createdAt,value
2023-02-04T00:02:07.969Z,9.70
2023-02-04T00:07:12.169Z,9.70
2023-02-04T00:12:15.256Z,9.80
2023-02-04T00:17:18.298Z,9.80
2023-02-04T00:22:22.542Z,9.70
2023-02-04T00:27:25.418Z,9.80
2023-02-04T00:32:28.338Z,9.90
2023-02-04T00:37:32.678Z,9.90
2023-02-04T00:42:35.559Z,9.90
2023-02-04T00:47:38.444Z,9.90
2023-02-04T00:52:42.630Z,9.90
2023-02-04T00:57:47.018Z,10.00
2023-02-04T01:02:50.129Z,10.00
2023-02-04T01:07:54.626Z,10.00
2023-02-04T01:12:57.565Z,10.10
2023-02-04T01:18:00.469Z,10.00
2023-02-04T01:23:04.974Z,9.90
2023-02-04T01:28:07.923Z,9.80
2023-02-04T01:33:10.816Z,9.90
2023-02-04T01:38:15.093Z,9.90
2023-02-04T01:43:18.766Z,9.90
2023-02-04T01:48:23.680Z,10.00
2023-02-04T01:53:27.971Z,9.90
2023-02-04T01:58:33.269Z,9.90
2023-02-04T02:03:36.190Z,9.90
2023-02-04T02:08:40.557Z,10.10
2023-02-04T02:13:43.605Z,10.00
2023-02-04T02:18:46.534Z,10.00
2023-02-04T02:23:53.573Z,9.90
2023-02-04T02:28:56.628Z,9.90
2023-02-04T02:33:59.530Z,10.00
2023-02-04T02:39:03.754Z,10.00
2023-02-04T02:44:06.871Z,10.00
2023-02-04T02:49:15.529Z,10.00
2023-02-04T02:54:24.853Z,10.10
2023-02-04T02:59:30.542Z,10.00
2023-02-04T03:04:38.844Z,9.90
2023-02-04T03:09:45.048Z,9.90
2023-02-04T03:14:48.170Z,9.80
2023-02-04T03:19:51.606Z,9.90
2023-02-04T03:24:58.352Z,9.90
2023-02-04T03:30:01.435Z,9.80
2023-02-04T03:35:04.953Z,9.80
2023-02-04T03:40:10.629Z,9.80
2023-02-04T03:45:13.925Z,9.80
2023-02-04T03:50:17.101Z,9.80
2023-02-04T03:55:21.627Z,9.90
2023-02-04T04:00:24.720Z,9.90
2023-02-04T04:05:28.488Z,9.90
2023-02-04T04:10:32.962Z,9.80
2023-02-04T04:15:36.034Z,9.80
2023-02-04T04:20:38.980Z,9.70
2023-02-04T04:25:43.184Z,9.70
2023-02-04T04:30:46.791Z,9.70
2023-02-04T04:35:49.778Z,9.70
2023-02-04T04:40:54.350Z,9.80
2023-02-04T04:45:57.339Z,9.80
2023-02-04T04:51:01.350Z,9.80
2023-02-04T04:56:05.902Z,9.70
2023-02-04T05:01:08.911Z,9.70
2023-02-04T05:06:13.043Z,9.80
2023-02-04T05:11:17.248Z,9.20
2023-02-04T05:16:20.224Z,9.00
2023-02-04T05:21:23.097Z,9.40
2023-02-04T05:26:30.475Z,9.40
2023-02-04T05:31:34.190Z,9.50
2023-02-04T05:36:37.160Z,9.60
2023-02-04T05:41:41.440Z,9.60
2023-02-04T05:46:44.366Z,9.50
2023-02-04T05:51:47.249Z,9.40
2023-02-04T05:56:51.816Z,9.40
2023-02-04T06:01:55.215Z,9.30
2023-02-04T06:06:58.236Z,9.30
2023-02-04T06:12:02.470Z,9.20
2023-02-04T06:17:05.408Z,9.10
2023-02-04T06:22:08.294Z,9.10
2023-02-04T06:27:12.494Z,9.10
2023-02-04T06:32:22.393Z,9.10
2023-02-04T06:37:25.321Z,9.10
2023-02-04T06:42:29.573Z,9.10
2023-02-04T06:47:32.529Z,9.00
2023-02-04T06:52:35.373Z,9.00
2023-02-04T06:57:39.813Z,9.20
2023-02-04T07:02:44.022Z,9.30
2023-02-04T07:07:46.977Z,9.30
2023-02-04T07:12:51.173Z,9.10
2023-02-04T07:17:54.038Z,9.00
2023-02-04T07:22:56.880Z,9.00
2023-02-04T07:28:02.016Z,8.80
2023-02-04T07:33:05.057Z,8.50
2023-02-04T07:38:08.453Z,8.50
2023-02-04T07:43:12.697Z,8.70
2023-02-04T07:48:15.627Z,9.00
2023-02-04T07:53:18.514Z,8.90
2023-02-04T07:58:22.845Z,9.00
2023-02-04T08:03:25.827Z,9.20
2023-02-04T08:08:28.770Z,9.20
2023-02-04T08:13:33.000Z,9.40
2023-02-04T08:18:35.871Z,9.30
2023-02-04T08:23:41.696Z,9.40
2023-02-04T08:28:49.095Z,8.90
2023-02-04T08:33:51.981Z,9.00
2023-02-04T08:38:54.875Z,8.90
2023-02-04T08:43:59.088Z,8.90
2023-02-04T08:49:02.019Z,9.00
2023-02-04T08:54:05.093Z,8.90
2023-02-04T08:59:09.372Z,8.80
2023-02-04T09:04:12.325Z,8.60
2023-02-04T09:09:15.569Z,8.80
2023-02-04T09:14:19.811Z,8.70
2023-02-04T09:19:25.498Z,8.90
2023-02-04T09:24:28.764Z,9.00
2023-02-04T09:29:33.003Z,9.20
2023-02-04T09:34:35.897Z,9.30
2023-02-04T09:39:38.765Z,9.30
2023-02-04T09:44:45.301Z,9.40
2023-02-04T09:49:48.202Z,9.10
2023-02-04T09:54:51.050Z,9.30
2023-02-04T09:59:55.383Z,9.20
2023-02-04T10:04:59.294Z,9.30
2023-02-04T10:10:02.953Z,9.20
2023-02-04T10:15:11.043Z,9.10
2023-02-04T10:20:15.539Z,9.00
2023-02-04T10:25:20.393Z,9.10
2023-02-04T10:30:26.599Z,9.10
2023-02-04T10:35:29.591Z,8.80
2023-02-04T10:40:34.294Z,8.80
2023-02-04T10:45:39.351Z,8.90
2023-02-04T10:50:42.201Z,9.00
2023-02-04T10:55:46.529Z,9.10
2023-02-04T11:00:50.788Z,9.20
2023-02-04T11:05:56.830Z,8.90
2023-02-04T11:11:02.839Z,9.00
2023-02-04T11:16:14.024Z,9.10
2023-02-04T11:21:24.119Z,9.10
2023-02-04T11:26:35.431Z,9.40
2023-02-04T11:31:57.629Z,9.30
2023-02-04T11:37:13.735Z,9.40
2023-02-04T11:42:22.820Z,9.50
2023-02-04T11:47:28.617Z,9.50
2023-02-04T11:52:31.495Z,9.30
2023-02-04T11:57:40.331Z,9.40
2023-02-04T12:02:47.424Z,9.60
2023-02-04T12:07:50.511Z,9.60
2023-02-04T12:12:57.581Z,9.40
2023-02-04T12:18:07.567Z,9.20
2023-02-04T12:23:10.474Z,9.20
2023-02-04T12:28:13.397Z,9.30
2023-02-04T12:33:18.022Z,9.30
2023-02-04T12:38:20.986Z,9.20
2023-02-04T12:43:26.118Z,9.30
2023-02-04T12:48:31.742Z,9.30
2023-02-04T12:53:34.893Z,9.50
2023-02-04T12:58:37.780Z,9.40
2023-02-04T13:03:42.017Z,9.50
2023-02-04T13:08:44.926Z,9.60
2023-02-04T13:13:56.028Z,9.60
2023-02-04T13:19:00.279Z,9.70
2023-02-04T13:24:03.158Z,9.80
2023-02-04T13:29:06.203Z,9.80
2023-02-04T13:34:14.806Z,9.80
2023-02-04T13:39:17.740Z,9.70
2023-02-04T13:44:20.698Z,9.70
2023-02-04T13:49:25.243Z,9.90
2023-02-04T13:54:29.246Z,9.90
2023-02-04T13:59:32.488Z,9.90
2023-02-04T14:04:44.208Z,9.90
2023-02-04T14:09:48.582Z,10.00
2023-02-04T14:14:51.498Z,10.10
2023-02-04T14:19:55.723Z,9.90
2023-02-04T14:24:58.734Z,10.00
2023-02-04T14:30:01.684Z,10.00
2023-02-04T14:35:06.706Z,9.90
2023-02-04T14:40:12.545Z,9.80
2023-02-04T14:45:16.337Z,9.80
2023-02-04T14:50:26.878Z,10.00
2023-02-04T14:55:29.744Z,10.00
2023-02-04T15:00:32.981Z,10.00
2023-02-04T15:05:37.703Z,9.90
2023-02-04T15:10:41.350Z,10.00
2023-02-04T15:15:44.383Z,10.00
2023-02-04T15:20:48.727Z,9.90
2023-02-04T15:26:06.963Z,10.10
2023-02-04T15:31:10.692Z,10.00
2023-02-04T15:36:15.098Z,9.90
2023-02-04T15:41:18.024Z,9.80
2023-02-04T15:46:20.951Z,9.80
2023-02-04T15:51:26.424Z,9.80
2023-02-04T15:56:29.314Z,9.80
2023-02-04T16:01:32.263Z,9.80
2023-02-04T16:06:36.593Z,9.90
2023-02-04T16:11:40.827Z,9.90
2023-02-04T16:16:43.704Z,9.80
2023-02-04T16:21:47.919Z,9.90
2023-02-04T16:26:50.823Z,9.70
2023-02-04T16:31:53.978Z,9.70
2023-02-04T16:36:58.276Z,9.50
2023-02-04T16:42:01.210Z,9.40
2023-02-04T16:47:04.142Z,9.60
2023-02-04T16:52:09.444Z,9.80
2023-02-04T16:57:14.638Z,9.90
2023-02-04T17:02:17.556Z,10.00
2023-02-04T17:07:21.783Z,9.80
2023-02-04T17:12:25.788Z,9.80
2023-02-04T17:17:28.628Z,9.50
2023-02-04T17:22:32.826Z,9.50
2023-02-04T17:27:35.934Z,9.40
2023-02-04T17:32:39.023Z,9.10
2023-02-04T17:37:43.238Z,8.90
2023-02-04T17:42:46.418Z,9.00
2023-02-04T17:47:49.379Z,8.80
2023-02-04T17:52:53.553Z,8.90
2023-02-04T17:57:57.207Z,8.80
2023-02-04T18:03:00.536Z,8.50
2023-02-04T18:08:13.790Z,8.40
2023-02-04T18:13:18.241Z,8.00
2023-02-04T18:18:24.092Z,8.00
2023-02-04T18:23:30.473Z,8.20
2023-02-04T18:28:36.721Z,8.30
2023-02-04T18:33:41.557Z,8.40
2023-02-04T18:38:45.977Z,8.50
2023-02-04T18:43:51.384Z,8.40
2023-02-04T18:49:00.773Z,8.40
2023-02-04T18:54:27.342Z,8.40
2023-02-04T18:59:30.270Z,8.40
2023-02-04T19:04:34.644Z,8.20
2023-02-04T19:09:39.009Z,8.30
2023-02-04T19:14:44.214Z,8.20
2023-02-04T19:19:55.366Z,8.20
2023-02-04T19:25:01.882Z,8.00
2023-02-04T19:30:40.559Z,7.20
2023-02-04T19:35:45.091Z,7.50
2023-02-04T19:40:52.303Z,7.80
2023-02-04T19:45:56.273Z,7.80
2023-02-04T19:51:00.581Z,7.70
2023-02-04T19:56:29.579Z,7.80
2023-02-04T20:01:34.427Z,7.50
2023-02-04T20:06:37.491Z,7.60
2023-02-04T20:11:59.546Z,7.50
2023-02-04T20:17:11.241Z,7.60
2023-02-04T20:22:48.245Z,7.40
2023-02-04T20:27:55.368Z,7.50
2023-02-04T20:33:00.756Z,7.50
2023-02-04T20:38:14.166Z,7.40
2023-02-04T20:43:20.307Z,7.00
2023-02-04T20:48:32.548Z,6.70
2023-02-04T20:53:39.591Z,6.50
2023-02-04T20:58:46.576Z,6.90
2023-02-04T21:03:51.246Z,7.00
2023-02-04T21:08:55.476Z,7.10
2023-02-04T21:13:59.694Z,7.10
2023-02-04T21:19:02.583Z,7.20
2023-02-04T21:24:06.055Z,7.30
2023-02-04T21:29:11.361Z,7.30
2023-02-04T21:34:15.772Z,7.30
2023-02-04T21:39:20.702Z,7.20
2023-02-04T21:44:24.932Z,7.30
2023-02-04T21:49:33.985Z,7.30
2023-02-04T21:54:36.955Z,7.40
2023-02-04T21:59:42.790Z,7.40
2023-02-04T22:04:45.654Z,7.40
2023-02-04T22:09:50.036Z,7.40
2023-02-04T22:14:54.374Z,7.40
2023-02-04T22:19:57.644Z,7.30
2023-02-04T22:25:00.559Z,7.10
2023-02-04T22:30:05.402Z,7.20
2023-02-04T22:35:10.122Z,7.30
2023-02-04T22:40:14.069Z,7.20
2023-02-04T22:45:18.577Z,7.10
2023-02-04T22:50:21.640Z,7.00
2023-02-04T22:55:24.583Z,6.90
2023-02-04T23:00:29.119Z,6.70
2023-02-04T23:05:32.561Z,6.50
2023-02-04T23:10:37.551Z,6.50
2023-02-04T23:15:43.415Z,6.80
2023-02-04T23:20:46.534Z,6.80
2023-02-04T23:25:50.036Z,6.70
2023-02-04T23:30:54.444Z,6.60
2023-02-04T23:35:57.493Z,6.50
2023-02-04T23:41:00.562Z,6.70
2023-02-04T23:46:05.154Z,6.60
2023-02-04T23:51:08.102Z,6.50
2023-02-04T23:56:11.013Z,6.50
